sensor_id;sensor_type;location;lat;lon;timestamp;pressure;altitude;pressure_sealevel;temperature;humidity
43281;BME280;62175;49.416;8.690;2023-04-08T00:00:14;100886.03;;;12.45;54.14
43281;BME280;62175;49.416;8.690;2023-04-08T00:02:42;100890.45;;;12.20;54.75
43281;BME280;62175;49.416;8.690;2023-04-08T00:05:09;100888.94;;;12.50;54.75
43281;BME280;62175;49.416;8.690;2023-04-08T00:07:36;100890.05;;;12.09;55.01
43281;BME280;62175;49.416;8.690;2023-04-08T00:10:05;100889.54;;;12.24;55.22
43281;BME280;62175;49.416;8.690;2023-04-08T00:12:32;100889.87;;;12.59;53.89
43281;BME280;62175;49.416;8.690;2023-04-08T00:14:59;100889.22;;;12.78;54.38
43281;BME280;62175;49.416;8.690;2023-04-08T00:17:26;100890.20;;;12.45;54.09
43281;BME280;62175;49.416;8.690;2023-04-08T00:19:54;100890.32;;;12.40;54.64
43281;BME280;62175;49.416;8.690;2023-04-08T00:22:21;100899.19;;;12.49;53.47
43281;BME280;62175;49.416;8.690;2023-04-08T00:24:48;100895.85;;;12.46;53.54
43281;BME280;62175;49.416;8.690;2023-04-08T00:27:15;100895.41;;;12.36;53.94
43281;BME280;62175;49.416;8.690;2023-04-08T00:29:42;100896.08;;;12.55;54.54
43281;BME280;62175;49.416;8.690;2023-04-08T00:32:09;100901.71;;;12.27;54.00
43281;BME280;62175;49.416;8.690;2023-04-08T00:34:36;100896.31;;;12.45;54.03
43281;BME280;62175;49.416;8.690;2023-04-08T00:37:04;100900.74;;;12.23;54.01
43281;BME280;62175;49.416;8.690;2023-04-08T00:39:31;100898.53;;;12.20;54.04
43281;BME280;62175;49.416;8.690;2023-04-08T00:41:58;100899.60;;;12.22;53.17
43281;BME280;62175;49.416;8.690;2023-04-08T00:44:25;100900.40;;;12.21;53.89
43281;BME280;62175;49.416;8.690;2023-04-08T00:46:53;100898.01;;;11.93;54.14
43281;BME280;62175;49.416;8.690;2023-04-08T00:49:20;100901.08;;;12.11;53.82
43281;BME280;62175;49.416;8.690;2023-04-08T00:51:47;100901.26;;;12.18;54.35
43281;BME280;62175;49.416;8.690;2023-04-08T00:54:15;100899.97;;;11.83;54.61
43281;BME280;62175;49.416;8.690;2023-04-08T00:56:42;100904.48;;;11.94;54.16
43281;BME280;62175;49.416;8.690;2023-04-08T00:59:10;100903.30;;;11.82;54.91
43281;BME280;62175;49.416;8.690;2023-04-08T01:01:43;100902.76;;;12.40;54.00
43281;BME280;62175;49.416;8.690;2023-04-08T01:04:19;100901.98;;;12.11;54.68
43281;BME280;62175;49.416;8.690;2023-04-08T01:06:58;100902.02;;;12.40;54.15
43281;BME280;62175;49.416;8.690;2023-04-08T01:09:31;100901.53;;;12.13;54.66
43281;BME280;62175;49.416;8.690;2023-04-08T01:12:02;100901.94;;;12.20;54.35
43281;BME280;62175;49.416;8.690;2023-04-08T01:14:30;100901.76;;;12.18;54.42
43281;BME280;62175;49.416;8.690;2023-04-08T01:17:01;100902.18;;;12.43;55.11
43281;BME280;62175;49.416;8.690;2023-04-08T01:19:32;100901.12;;;12.02;54.80
43281;BME280;62175;49.416;8.690;2023-04-08T01:22:04;100900.74;;;12.16;54.80
43281;BME280;62175;49.416;8.690;2023-04-08T01:24:39;100902.59;;;12.60;53.81
43281;BME280;62175;49.416;8.690;2023-04-08T01:27:09;100900.01;;;12.38;54.18
43281;BME280;62175;49.416;8.690;2023-04-08T01:29:38;100900.35;;;12.69;54.37
43281;BME280;62175;49.416;8.690;2023-04-08T01:32:05;100895.97;;;12.33;53.74
43281;BME280;62175;49.416;8.690;2023-04-08T01:34:35;100900.08;;;12.18;53.96
43281;BME280;62175;49.416;8.690;2023-04-08T01:37:04;100899.27;;;12.41;54.80
43281;BME280;62175;49.416;8.690;2023-04-08T01:39:33;100899.51;;;12.31;54.04
43281;BME280;62175;49.416;8.690;2023-04-08T01:42:02;100898.10;;;12.19;55.10
43281;BME280;62175;49.416;8.690;2023-04-08T01:44:30;100896.68;;;12.07;54.59
43281;BME280;62175;49.416;8.690;2023-04-08T01:46:58;100892.47;;;12.57;54.54
43281;BME280;62175;49.416;8.690;2023-04-08T01:49:26;100895.08;;;12.07;54.29
43281;BME280;62175;49.416;8.690;2023-04-08T01:51:56;100894.27;;;12.20;54.08
43281;BME280;62175;49.416;8.690;2023-04-08T01:54:24;100893.48;;;11.93;54.38
43281;BME280;62175;49.416;8.690;2023-04-08T01:56:53;100893.10;;;12.08;54.56
43281;BME280;62175;49.416;8.690;2023-04-08T01:59:23;100895.53;;;11.94;54.09
43281;BME280;62175;49.416;8.690;2023-04-08T02:01:56;100896.23;;;12.15;55.21
43281;BME280;62175;49.416;8.690;2023-04-08T02:04:23;100893.76;;;11.84;54.99
43281;BME280;62175;49.416;8.690;2023-04-08T02:06:50;100894.98;;;12.35;54.71
43281;BME280;62175;49.416;8.690;2023-04-08T02:09:18;100896.65;;;12.33;54.18
43281;BME280;62175;49.416;8.690;2023-04-08T02:11:45;100896.22;;;12.52;54.29
43281;BME280;62175;49.416;8.690;2023-04-08T02:14:12;100896.67;;;12.23;54.19
43281;BME280;62175;49.416;8.690;2023-04-08T02:16:44;100898.15;;;11.94;54.41
43281;BME280;62175;49.416;8.690;2023-04-08T02:19:22;100898.56;;;12.30;54.67
43281;BME280;62175;49.416;8.690;2023-04-08T02:21:55;100899.07;;;11.73;54.64
43281;BME280;62175;49.416;8.690;2023-04-08T02:24:25;100899.44;;;12.09;54.51
43281;BME280;62175;49.416;8.690;2023-04-08T02:26:54;100897.82;;;12.09;53.80
43281;BME280;62175;49.416;8.690;2023-04-08T02:29:23;100898.57;;;12.25;54.63
43281;BME280;62175;49.416;8.690;2023-04-08T02:31:51;100899.29;;;12.06;54.41
43281;BME280;62175;49.416;8.690;2023-04-08T02:34:20;100899.81;;;11.88;53.93
43281;BME280;62175;49.416;8.690;2023-04-08T02:36:48;100899.73;;;12.01;54.49
43281;BME280;62175;49.416;8.690;2023-04-08T02:39:15;100904.61;;;12.32;54.44
43281;BME280;62175;49.416;8.690;2023-04-08T02:41:42;100904.05;;;11.88;54.66
43281;BME280;62175;49.416;8.690;2023-04-08T02:44:09;100905.12;;;12.34;54.66
43281;BME280;62175;49.416;8.690;2023-04-08T02:46:37;100907.43;;;11.84;54.88
43281;BME280;62175;49.416;8.690;2023-04-08T02:49:04;100905.00;;;12.05;54.68
43281;BME280;62175;49.416;8.690;2023-04-08T02:51:31;100902.11;;;12.04;54.44
43281;BME280;62175;49.416;8.690;2023-04-08T02:53:58;100898.95;;;12.42;54.64
43281;BME280;62175;49.416;8.690;2023-04-08T02:56:26;100897.87;;;11.87;54.26
43281;BME280;62175;49.416;8.690;2023-04-08T02:58:53;100899.43;;;11.87;54.59
43281;BME280;62175;49.416;8.690;2023-04-08T03:01:20;100897.80;;;12.24;54.09
43281;BME280;62175;49.416;8.690;2023-04-08T03:03:46;100902.00;;;12.09;54.24
43281;BME280;62175;49.416;8.690;2023-04-08T03:06:14;100900.58;;;12.20;54.63
43281;BME280;62175;49.416;8.690;2023-04-08T03:08:41;100900.69;;;11.93;54.36
43281;BME280;62175;49.416;8.690;2023-04-08T03:11:08;100905.67;;;11.97;54.54
43281;BME280;62175;49.416;8.690;2023-04-08T03:13:35;100906.35;;;11.57;54.70
43281;BME280;62175;49.416;8.690;2023-04-08T03:16:03;100906.78;;;12.05;55.02
43281;BME280;62175;49.416;8.690;2023-04-08T03:18:30;100906.63;;;12.12;54.63
43281;BME280;62175;49.416;8.690;2023-04-08T03:20:57;100907.40;;;11.70;54.22
43281;BME280;62175;49.416;8.690;2023-04-08T03:23:24;100906.71;;;12.06;54.49
43281;BME280;62175;49.416;8.690;2023-04-08T03:25:51;100903.66;;;12.09;54.80
43281;BME280;62175;49.416;8.690;2023-04-08T03:28:19;100908.09;;;11.94;54.78
43281;BME280;62175;49.416;8.690;2023-04-08T03:30:46;100909.86;;;11.91;54.27
43281;BME280;62175;49.416;8.690;2023-04-08T03:33:13;100908.09;;;11.93;54.53
43281;BME280;62175;49.416;8.690;2023-04-08T03:35:40;100909.70;;;11.67;54.39
43281;BME280;62175;49.416;8.690;2023-04-08T03:38:08;100907.37;;;12.09;54.66
43281;BME280;62175;49.416;8.690;2023-04-08T03:40:35;100906.21;;;12.03;54.19
43281;BME280;62175;49.416;8.690;2023-04-08T03:43:01;100909.71;;;11.99;54.22
43281;BME280;62175;49.416;8.690;2023-04-08T03:45:29;100910.90;;;12.03;54.72
43281;BME280;62175;49.416;8.690;2023-04-08T03:47:56;100911.90;;;11.90;54.30
43281;BME280;62175;49.416;8.690;2023-04-08T03:50:23;100912.02;;;11.98;54.11
43281;BME280;62175;49.416;8.690;2023-04-08T03:52:50;100913.92;;;11.95;54.71
43281;BME280;62175;49.416;8.690;2023-04-08T03:55:17;100913.25;;;11.92;54.16
43281;BME280;62175;49.416;8.690;2023-04-08T03:57:45;100912.53;;;11.78;54.07
43281;BME280;62175;49.416;8.690;2023-04-08T04:00:13;100912.13;;;12.26;53.56
43281;BME280;62175;49.416;8.690;2023-04-08T04:02:40;100913.22;;;11.93;54.54
43281;BME280;62175;49.416;8.690;2023-04-08T04:05:08;100915.87;;;12.11;54.23
43281;BME280;62175;49.416;8.690;2023-04-08T04:07:35;100918.07;;;12.00;54.19
43281;BME280;62175;49.416;8.690;2023-04-08T04:10:02;100921.93;;;11.91;54.52
43281;BME280;62175;49.416;8.690;2023-04-08T04:12:29;100921.16;;;11.80;54.51
43281;BME280;62175;49.416;8.690;2023-04-08T04:14:56;100925.39;;;11.97;54.58
43281;BME280;62175;49.416;8.690;2023-04-08T04:17:23;100925.09;;;12.01;54.15
43281;BME280;62175;49.416;8.690;2023-04-08T04:19:50;100928.55;;;12.14;54.58
43281;BME280;62175;49.416;8.690;2023-04-08T04:22:18;100929.11;;;11.77;54.42
43281;BME280;62175;49.416;8.690;2023-04-08T04:24:46;100932.14;;;12.03;54.34
43281;BME280;62175;49.416;8.690;2023-04-08T04:27:13;100931.16;;;12.02;54.34
43281;BME280;62175;49.416;8.690;2023-04-08T04:29:40;100929.21;;;11.57;55.07
43281;BME280;62175;49.416;8.690;2023-04-08T04:32:08;100930.43;;;11.99;54.82
43281;BME280;62175;49.416;8.690;2023-04-08T04:34:35;100929.18;;;11.95;54.75
43281;BME280;62175;49.416;8.690;2023-04-08T04:37:02;100931.85;;;11.83;54.87
43281;BME280;62175;49.416;8.690;2023-04-08T04:39:29;100932.95;;;11.97;54.88
43281;BME280;62175;49.416;8.690;2023-04-08T04:41:57;100935.75;;;11.96;54.84
43281;BME280;62175;49.416;8.690;2023-04-08T04:44:24;100935.99;;;11.93;54.92
43281;BME280;62175;49.416;8.690;2023-04-08T04:46:51;100939.43;;;11.91;55.17
43281;BME280;62175;49.416;8.690;2023-04-08T04:49:18;100938.78;;;11.96;54.73
43281;BME280;62175;49.416;8.690;2023-04-08T04:51:45;100937.66;;;11.91;54.88
43281;BME280;62175;49.416;8.690;2023-04-08T04:54:13;100941.89;;;11.83;54.93
43281;BME280;62175;49.416;8.690;2023-04-08T04:56:40;100942.47;;;11.88;55.49
43281;BME280;62175;49.416;8.690;2023-04-08T04:59:07;100943.87;;;11.79;55.08
43281;BME280;62175;49.416;8.690;2023-04-08T05:01:34;100946.02;;;11.89;55.51
43281;BME280;62175;49.416;8.690;2023-04-08T05:04:01;100948.76;;;11.86;55.10
43281;BME280;62175;49.416;8.690;2023-04-08T05:06:29;100947.30;;;11.87;55.30
43281;BME280;62175;49.416;8.690;2023-04-08T05:08:56;100950.84;;;11.91;55.20
43281;BME280;62175;49.416;8.690;2023-04-08T05:11:23;100948.65;;;11.83;55.27
43281;BME280;62175;49.416;8.690;2023-04-08T05:13:50;100949.30;;;11.98;54.74
43281;BME280;62175;49.416;8.690;2023-04-08T05:16:17;100949.59;;;11.89;55.16
43281;BME280;62175;49.416;8.690;2023-04-08T05:18:45;100955.46;;;11.68;54.70
43281;BME280;62175;49.416;8.690;2023-04-08T05:21:12;100956.04;;;11.80;55.06
43281;BME280;62175;49.416;8.690;2023-04-08T05:23:39;100960.09;;;12.04;54.84
43281;BME280;62175;49.416;8.690;2023-04-08T05:26:07;100962.38;;;11.55;55.10
43281;BME280;62175;49.416;8.690;2023-04-08T05:28:33;100963.51;;;11.81;54.97
43281;BME280;62175;49.416;8.690;2023-04-08T05:31:01;100963.91;;;11.91;54.88
43281;BME280;62175;49.416;8.690;2023-04-08T05:33:28;100965.20;;;11.86;55.10
43281;BME280;62175;49.416;8.690;2023-04-08T05:35:55;100966.87;;;11.62;55.37
43281;BME280;62175;49.416;8.690;2023-04-08T05:38:22;100966.93;;;11.91;54.98
43281;BME280;62175;49.416;8.690;2023-04-08T05:40:49;100971.45;;;11.60;55.20
43281;BME280;62175;49.416;8.690;2023-04-08T05:43:16;100970.98;;;11.71;55.33
43281;BME280;62175;49.416;8.690;2023-04-08T05:45:43;100968.06;;;11.77;55.07
43281;BME280;62175;49.416;8.690;2023-04-08T05:48:11;100971.64;;;11.82;55.21
43281;BME280;62175;49.416;8.690;2023-04-08T05:50:38;100974.61;;;11.71;55.38
43281;BME280;62175;49.416;8.690;2023-04-08T05:53:05;100978.82;;;11.79;55.56
43281;BME280;62175;49.416;8.690;2023-04-08T05:55:33;100982.74;;;11.81;54.99
43281;BME280;62175;49.416;8.690;2023-04-08T05:58:00;100985.12;;;11.88;55.12
43281;BME280;62175;49.416;8.690;2023-04-08T06:00:27;100990.38;;;11.71;55.12
43281;BME280;62175;49.416;8.690;2023-04-08T06:02:54;100990.44;;;11.66;55.09
43281;BME280;62175;49.416;8.690;2023-04-08T06:05:21;100992.19;;;11.70;54.97
43281;BME280;62175;49.416;8.690;2023-04-08T06:07:48;100994.70;;;12.00;54.95
43281;BME280;62175;49.416;8.690;2023-04-08T06:10:16;100995.91;;;11.66;55.26
43281;BME280;62175;49.416;8.690;2023-04-08T06:12:43;100996.33;;;11.94;54.98
43281;BME280;62175;49.416;8.690;2023-04-08T06:15:10;100997.03;;;11.95;55.10
43281;BME280;62175;49.416;8.690;2023-04-08T06:17:38;100999.48;;;11.96;54.86
43281;BME280;62175;49.416;8.690;2023-04-08T06:20:06;101001.56;;;11.92;55.07
43281;BME280;62175;49.416;8.690;2023-04-08T06:22:34;101001.86;;;12.16;55.06
43281;BME280;62175;49.416;8.690;2023-04-08T06:25:01;101003.77;;;12.07;54.56
43281;BME280;62175;49.416;8.690;2023-04-08T06:27:28;101002.37;;;11.91;54.49
43281;BME280;62175;49.416;8.690;2023-04-08T06:29:55;101005.34;;;11.78;55.01
43281;BME280;62175;49.416;8.690;2023-04-08T06:32:23;101008.35;;;12.05;55.34
43281;BME280;62175;49.416;8.690;2023-04-08T06:34:50;101006.11;;;12.10;55.29
43281;BME280;62175;49.416;8.690;2023-04-08T06:37:17;101006.56;;;12.26;54.49
43281;BME280;62175;49.416;8.690;2023-04-08T06:39:44;101011.79;;;12.06;54.73
43281;BME280;62175;49.416;8.690;2023-04-08T06:42:12;101012.63;;;12.35;54.36
43281;BME280;62175;49.416;8.690;2023-04-08T06:44:39;101017.36;;;11.88;54.64
43281;BME280;62175;49.416;8.690;2023-04-08T06:47:07;101017.11;;;12.05;54.15
43281;BME280;62175;49.416;8.690;2023-04-08T06:49:34;101020.59;;;12.32;54.41
43281;BME280;62175;49.416;8.690;2023-04-08T06:52:01;101021.58;;;11.48;54.99
43281;BME280;62175;49.416;8.690;2023-04-08T06:54:28;101024.07;;;11.88;54.82
43281;BME280;62175;49.416;8.690;2023-04-08T06:56:55;101026.51;;;11.72;54.52
43281;BME280;62175;49.416;8.690;2023-04-08T06:59:22;101026.30;;;12.18;54.82
43281;BME280;62175;49.416;8.690;2023-04-08T07:01:49;101029.63;;;12.11;54.68
43281;BME280;62175;49.416;8.690;2023-04-08T07:04:16;101035.53;;;11.96;54.63
43281;BME280;62175;49.416;8.690;2023-04-08T07:06:43;101034.84;;;12.26;54.66
43281;BME280;62175;49.416;8.690;2023-04-08T07:09:10;101036.44;;;11.73;54.67
43281;BME280;62175;49.416;8.690;2023-04-08T07:11:37;101037.80;;;12.16;54.32
43281;BME280;62175;49.416;8.690;2023-04-08T07:14:05;101039.16;;;12.18;54.84
43281;BME280;62175;49.416;8.690;2023-04-08T07:16:32;101037.20;;;11.83;54.94
43281;BME280;62175;49.416;8.690;2023-04-08T07:18:59;101041.74;;;12.39;54.06
43281;BME280;62175;49.416;8.690;2023-04-08T07:21:26;101041.18;;;11.77;53.86
43281;BME280;62175;49.416;8.690;2023-04-08T07:23:54;101046.45;;;11.93;54.21
43281;BME280;62175;49.416;8.690;2023-04-08T07:26:21;101050.23;;;12.21;54.12
43281;BME280;62175;49.416;8.690;2023-04-08T07:28:48;101051.94;;;11.78;54.14
43281;BME280;62175;49.416;8.690;2023-04-08T07:31:16;101055.58;;;12.05;53.92
43281;BME280;62175;49.416;8.690;2023-04-08T07:33:44;101058.75;;;12.19;53.99
43281;BME280;62175;49.416;8.690;2023-04-08T07:36:13;101056.26;;;11.75;54.06
43281;BME280;62175;49.416;8.690;2023-04-08T07:38:40;101058.45;;;11.91;53.70
43281;BME280;62175;49.416;8.690;2023-04-08T07:41:08;101064.59;;;12.32;53.67
43281;BME280;62175;49.416;8.690;2023-04-08T07:43:35;101063.71;;;11.98;53.90
43281;BME280;62175;49.416;8.690;2023-04-08T07:46:02;101066.05;;;11.77;53.46
43281;BME280;62175;49.416;8.690;2023-04-08T07:48:30;101064.39;;;12.28;53.42
43281;BME280;62175;49.416;8.690;2023-04-08T07:50:58;101067.91;;;11.90;54.22
43281;BME280;62175;49.416;8.690;2023-04-08T07:53:28;101065.36;;;12.29;53.59
43281;BME280;62175;49.416;8.690;2023-04-08T07:55:55;101064.32;;;12.34;53.68
43281;BME280;62175;49.416;8.690;2023-04-08T07:58:22;101064.72;;;12.31;53.26
43281;BME280;62175;49.416;8.690;2023-04-08T08:00:50;101066.89;;;12.42;53.04
43281;BME280;62175;49.416;8.690;2023-04-08T08:03:17;101065.19;;;12.09;53.53
43281;BME280;62175;49.416;8.690;2023-04-08T08:05:44;101062.77;;;12.39;52.35
43281;BME280;62175;49.416;8.690;2023-04-08T08:08:12;101062.28;;;12.35;52.94
43281;BME280;62175;49.416;8.690;2023-04-08T08:10:39;101061.93;;;12.11;52.77
43281;BME280;62175;49.416;8.690;2023-04-08T08:13:06;101065.79;;;12.31;52.27
43281;BME280;62175;49.416;8.690;2023-04-08T08:15:34;101066.35;;;12.33;51.77
43281;BME280;62175;49.416;8.690;2023-04-08T08:18:01;101062.74;;;12.45;51.80
43281;BME280;62175;49.416;8.690;2023-04-08T08:20:28;101070.16;;;12.19;51.58
43281;BME280;62175;49.416;8.690;2023-04-08T08:22:55;101072.31;;;12.55;51.25
43281;BME280;62175;49.416;8.690;2023-04-08T08:25:22;101069.44;;;12.49;51.04
43281;BME280;62175;49.416;8.690;2023-04-08T08:27:49;101072.88;;;12.35;50.59
43281;BME280;62175;49.416;8.690;2023-04-08T08:30:16;101077.02;;;12.48;50.28
43281;BME280;62175;49.416;8.690;2023-04-08T08:32:43;101078.15;;;12.53;50.57
43281;BME280;62175;49.416;8.690;2023-04-08T08:35:11;101087.65;;;12.38;50.56
43281;BME280;62175;49.416;8.690;2023-04-08T08:37:37;101086.63;;;12.49;50.99
43281;BME280;62175;49.416;8.690;2023-04-08T08:40:05;101091.15;;;12.54;50.60
43281;BME280;62175;49.416;8.690;2023-04-08T08:42:32;101088.29;;;12.44;50.97
43281;BME280;62175;49.416;8.690;2023-04-08T08:45:01;101094.86;;;12.57;50.56
43281;BME280;62175;49.416;8.690;2023-04-08T08:47:30;101093.31;;;12.74;49.84
43281;BME280;62175;49.416;8.690;2023-04-08T08:49:57;101089.68;;;12.16;50.03
43281;BME280;62175;49.416;8.690;2023-04-08T08:52:24;101089.82;;;12.36;50.92
43281;BME280;62175;49.416;8.690;2023-04-08T08:54:56;101092.12;;;12.20;50.44
43281;BME280;62175;49.416;8.690;2023-04-08T08:57:24;101096.00;;;12.44;50.59
43281;BME280;62175;49.416;8.690;2023-04-08T08:59:51;101098.38;;;12.47;50.25
43281;BME280;62175;49.416;8.690;2023-04-08T09:02:27;101098.78;;;12.28;49.77
43281;BME280;62175;49.416;8.690;2023-04-08T09:04:57;101099.27;;;12.93;49.88
43281;BME280;62175;49.416;8.690;2023-04-08T09:07:25;101101.73;;;12.26;49.63
43281;BME280;62175;49.416;8.690;2023-04-08T09:09:54;101100.47;;;12.38;48.31
43281;BME280;62175;49.416;8.690;2023-04-08T09:12:22;101102.82;;;12.92;50.19
43281;BME280;62175;49.416;8.690;2023-04-08T09:14:49;101101.53;;;12.38;48.97
43281;BME280;62175;49.416;8.690;2023-04-08T09:17:31;101098.33;;;12.29;49.23
43281;BME280;62175;49.416;8.690;2023-04-08T09:20:08;101092.30;;;12.48;48.60
43281;BME280;62175;49.416;8.690;2023-04-08T09:22:55;101103.91;;;12.41;47.85
43281;BME280;62175;49.416;8.690;2023-04-08T09:25:23;101098.94;;;12.28;47.86
43281;BME280;62175;49.416;8.690;2023-04-08T09:27:51;101099.14;;;12.59;49.33
43281;BME280;62175;49.416;8.690;2023-04-08T09:30:19;101095.18;;;12.23;47.19
43281;BME280;62175;49.416;8.690;2023-04-08T09:32:48;101094.29;;;12.59;46.22
43281;BME280;62175;49.416;8.690;2023-04-08T09:35:21;101093.51;;;12.49;46.85
43281;BME280;62175;49.416;8.690;2023-04-08T09:37:49;101104.60;;;12.62;48.14
43281;BME280;62175;49.416;8.690;2023-04-08T09:40:17;101097.87;;;12.65;46.15
43281;BME280;62175;49.416;8.690;2023-04-08T09:42:45;101095.77;;;12.68;46.70
43281;BME280;62175;49.416;8.690;2023-04-08T09:45:14;101107.99;;;12.70;46.38
43281;BME280;62175;49.416;8.690;2023-04-08T09:47:50;101103.23;;;12.50;46.92
43281;BME280;62175;49.416;8.690;2023-04-08T09:50:25;101106.49;;;12.67;47.59
43281;BME280;62175;49.416;8.690;2023-04-08T09:52:58;101100.28;;;12.72;45.64
43281;BME280;62175;49.416;8.690;2023-04-08T09:55:29;101098.20;;;12.62;45.31
43281;BME280;62175;49.416;8.690;2023-04-08T09:58:01;101094.23;;;13.10;46.45
43281;BME280;62175;49.416;8.690;2023-04-08T10:00:33;101093.53;;;12.84;45.49
43281;BME280;62175;49.416;8.690;2023-04-08T10:03:07;101097.13;;;12.86;45.41
43281;BME280;62175;49.416;8.690;2023-04-08T10:05:37;101094.74;;;12.97;46.02
43281;BME280;62175;49.416;8.690;2023-04-08T10:08:07;101100.19;;;12.75;44.96
43281;BME280;62175;49.416;8.690;2023-04-08T10:10:35;101102.00;;;12.58;43.48
43281;BME280;62175;49.416;8.690;2023-04-08T10:13:07;101103.07;;;12.56;44.75
43281;BME280;62175;49.416;8.690;2023-04-08T10:15:36;101106.61;;;12.80;44.47
43281;BME280;62175;49.416;8.690;2023-04-08T10:18:36;101102.91;;;12.72;44.25
43281;BME280;62175;49.416;8.690;2023-04-08T10:21:04;101107.56;;;12.65;45.45
43281;BME280;62175;49.416;8.690;2023-04-08T10:23:58;101108.52;;;13.17;44.39
43281;BME280;62175;49.416;8.690;2023-04-08T10:26:30;101111.44;;;12.48;44.66
43281;BME280;62175;49.416;8.690;2023-04-08T10:29:30;101107.35;;;12.72;45.07
43281;BME280;62175;49.416;8.690;2023-04-08T10:31:58;101111.45;;;12.59;44.06
43281;BME280;62175;49.416;8.690;2023-04-08T10:34:25;101104.42;;;12.68;43.50
43281;BME280;62175;49.416;8.690;2023-04-08T10:36:54;101107.34;;;13.02;45.45
43281;BME280;62175;49.416;8.690;2023-04-08T10:39:23;101109.34;;;12.80;43.81
43281;BME280;62175;49.416;8.690;2023-04-08T10:41:50;101110.66;;;13.04;42.33
43281;BME280;62175;49.416;8.690;2023-04-08T10:44:19;101111.55;;;13.14;42.77
43281;BME280;62175;49.416;8.690;2023-04-08T10:46:47;101112.70;;;12.90;43.49
43281;BME280;62175;49.416;8.690;2023-04-08T10:49:18;101113.70;;;13.18;43.38
43281;BME280;62175;49.416;8.690;2023-04-08T10:51:46;101113.88;;;12.76;43.17
43281;BME280;62175;49.416;8.690;2023-04-08T10:54:15;101112.46;;;13.09;43.05
43281;BME280;62175;49.416;8.690;2023-04-08T10:56:44;101118.18;;;12.98;44.09
43281;BME280;62175;49.416;8.690;2023-04-08T10:59:12;101117.59;;;12.97;42.96
43281;BME280;62175;49.416;8.690;2023-04-08T11:01:41;101117.51;;;13.08;42.77
43281;BME280;62175;49.416;8.690;2023-04-08T11:04:12;101118.99;;;12.87;43.01
43281;BME280;62175;49.416;8.690;2023-04-08T11:06:40;101115.95;;;13.12;43.30
43281;BME280;62175;49.416;8.690;2023-04-08T11:09:08;101114.50;;;12.97;43.42
43281;BME280;62175;49.416;8.690;2023-04-08T11:11:35;101115.14;;;13.01;42.42
43281;BME280;62175;49.416;8.690;2023-04-08T11:14:02;101109.93;;;12.67;40.67
43281;BME280;62175;49.416;8.690;2023-04-08T11:16:30;101108.00;;;13.07;45.11
43281;BME280;62175;49.416;8.690;2023-04-08T11:18:58;101106.10;;;13.17;43.89
43281;BME280;62175;49.416;8.690;2023-04-08T11:21:25;101104.02;;;12.98;41.13
43281;BME280;62175;49.416;8.690;2023-04-08T11:23:53;101105.43;;;12.85;40.50
43281;BME280;62175;49.416;8.690;2023-04-08T11:26:21;101100.55;;;13.13;39.73
43281;BME280;62175;49.416;8.690;2023-04-08T11:28:49;101102.04;;;13.14;41.22
43281;BME280;62175;49.416;8.690;2023-04-08T11:31:17;101109.85;;;13.15;42.45
43281;BME280;62175;49.416;8.690;2023-04-08T11:33:46;101108.15;;;12.64;44.45
43281;BME280;62175;49.416;8.690;2023-04-08T11:36:14;101108.78;;;12.89;41.68
43281;BME280;62175;49.416;8.690;2023-04-08T11:38:44;101113.38;;;12.97;42.35
43281;BME280;62175;49.416;8.690;2023-04-08T11:41:12;101113.51;;;12.78;42.73
43281;BME280;62175;49.416;8.690;2023-04-08T11:43:38;101106.37;;;12.56;41.68
43281;BME280;62175;49.416;8.690;2023-04-08T11:46:09;101106.49;;;13.05;42.41
43281;BME280;62175;49.416;8.690;2023-04-08T11:48:36;101106.83;;;13.10;41.93
43281;BME280;62175;49.416;8.690;2023-04-08T11:51:05;101100.80;;;12.85;41.77
43281;BME280;62175;49.416;8.690;2023-04-08T11:53:32;101103.84;;;12.67;40.92
43281;BME280;62175;49.416;8.690;2023-04-08T11:56:17;101101.85;;;12.85;41.18
43281;BME280;62175;49.416;8.690;2023-04-08T11:58:44;101103.49;;;13.01;41.42
43281;BME280;62175;49.416;8.690;2023-04-08T12:01:11;101097.82;;;13.29;40.78
43281;BME280;62175;49.416;8.690;2023-04-08T12:03:56;101099.35;;;12.89;40.89
43281;BME280;62175;49.416;8.690;2023-04-08T12:06:23;101095.04;;;13.13;42.36
43281;BME280;62175;49.416;8.690;2023-04-08T12:08:51;101097.37;;;13.15;40.41
43281;BME280;62175;49.416;8.690;2023-04-08T12:11:18;101093.85;;;13.24;40.43
43281;BME280;62175;49.416;8.690;2023-04-08T12:13:45;101103.45;;;13.30;40.76
43281;BME280;62175;49.416;8.690;2023-04-08T12:16:13;101097.65;;;13.34;41.02
43281;BME280;62175;49.416;8.690;2023-04-08T12:18:40;101097.18;;;13.30;41.82
43281;BME280;62175;49.416;8.690;2023-04-08T12:21:08;101094.43;;;13.20;41.20
43281;BME280;62175;49.416;8.690;2023-04-08T12:23:36;101094.88;;;13.39;40.41
43281;BME280;62175;49.416;8.690;2023-04-08T12:26:04;101094.41;;;13.31;41.71
43281;BME280;62175;49.416;8.690;2023-04-08T12:28:31;101096.97;;;13.36;42.11
43281;BME280;62175;49.416;8.690;2023-04-08T12:30:58;101096.26;;;13.19;41.39
43281;BME280;62175;49.416;8.690;2023-04-08T12:33:26;101102.45;;;13.22;41.54
43281;BME280;62175;49.416;8.690;2023-04-08T12:35:53;101097.05;;;13.31;41.50
43281;BME280;62175;49.416;8.690;2023-04-08T12:38:20;101094.96;;;13.17;42.24
43281;BME280;62175;49.416;8.690;2023-04-08T12:40:47;101093.19;;;13.23;41.46
43281;BME280;62175;49.416;8.690;2023-04-08T12:43:15;101095.44;;;13.01;41.69
43281;BME280;62175;49.416;8.690;2023-04-08T12:45:43;101092.67;;;13.29;42.00
43281;BME280;62175;49.416;8.690;2023-04-08T12:48:11;101091.69;;;13.32;42.09
43281;BME280;62175;49.416;8.690;2023-04-08T12:50:39;101097.96;;;13.27;42.23
43281;BME280;62175;49.416;8.690;2023-04-08T12:53:06;101092.71;;;13.06;41.76
43281;BME280;62175;49.416;8.690;2023-04-08T12:55:34;101092.92;;;13.30;41.30